Time;durP1;ratioP1;P1;durP2;ratioP2;P2;SDS_P1;SDS_P2;PMS_P1;PMS_P2;Temp;Humidity;BMP_temperature;BMP_pressure;BME280_temperature;BME280_humidity;BME280_pressure;Samples;Min_cycle;Max_cycle;Signal;HPM_P1;HPM_P2
2023/09/29 00:00:53;;;;;;;1999.90;999.90;;;15.70;99.90;;;;;;5085181;28;20024;-67
2023/09/29 00:03:19;;;;;;;1999.90;999.90;;;15.70;99.90;;;;;;5097727;28;20027;-67
2023/09/29 00:05:45;;;;;;;1999.90;999.90;;;15.70;99.90;;;;;;5104722;28;20027;-67
2023/09/29 00:08:16;;;;;;;1999.90;999.90;;;15.70;99.90;;;;;;5103501;28;20027;-67
2023/09/29 00:10:45;;;;;;;1999.90;999.90;;;15.80;99.90;;;;;;5079072;28;20028;-67
2023/09/29 00:13:12;;;;;;;1999.90;999.90;;;15.80;99.90;;;;;;5099578;28;20089;-67
2023/09/29 00:15:38;;;;;;;1999.90;999.90;;;15.80;99.90;;;;;;5102713;28;20035;-67
2023/09/29 00:18:05;;;;;;;1999.90;999.90;;;15.80;99.90;;;;;;5104257;28;20415;-67
2023/09/29 00:20:31;;;;;;;1999.90;999.90;;;15.80;99.90;;;;;;5106659;28;20092;-67
2023/09/29 00:22:58;;;;;;;1999.90;999.90;;;15.80;99.90;;;;;;5108211;28;20325;-67
2023/09/29 00:25:24;;;;;;;1999.90;999.90;;;15.80;99.90;;;;;;5110271;28;20024;-67
2023/09/29 00:27:51;;;;;;;1999.90;999.90;;;15.80;99.90;;;;;;5099853;28;20127;-67
2023/09/29 00:30:17;;;;;;;1999.90;999.90;;;15.90;99.90;;;;;;5107775;28;20523;-66
2023/09/29 00:32:50;;;;;;;1999.90;999.90;;;15.90;99.90;;;;;;5080215;28;20487;-67
2023/09/29 00:35:24;;;;;;;1999.90;999.90;;;16.00;99.90;;;;;;5104526;28;20396;-66
2023/09/29 00:37:54;;;;;;;1999.90;999.90;;;16.00;99.90;;;;;;5083103;28;20042;-67
2023/09/29 00:40:19;;;;;;;1999.90;999.90;;;16.00;99.90;;;;;;5106463;28;20038;-67
2023/09/29 00:42:46;;;;;;;1999.90;999.90;;;16.00;99.90;;;;;;5104962;28;20114;-67
2023/09/29 00:45:16;;;;;;;1999.90;999.90;;;16.10;99.90;;;;;;5109088;28;20042;-67
2023/09/29 00:47:43;;;;;;;1999.90;999.90;;;16.10;99.90;;;;;;5104345;28;20032;-67
2023/09/29 00:50:10;;;;;;;1999.90;999.90;;;16.10;99.90;;;;;;5100314;28;20121;-67
2023/09/29 00:52:40;;;;;;;1999.90;999.90;;;16.20;99.90;;;;;;5113700;28;20099;-67
2023/09/29 00:55:13;;;;;;;1999.90;999.90;;;16.20;99.90;;;;;;5100813;28;20028;-67
2023/09/29 00:57:40;;;;;;;1999.90;999.90;;;16.20;99.90;;;;;;5116743;28;20106;-67
2023/09/29 01:02:44;;;;;;;1999.90;999.90;;;16.30;99.90;;;;;;5106267;28;20031;-67
2023/09/29 01:05:14;;;;;;;1999.90;999.90;;;16.30;99.90;;;;;;5106894;28;20038;-67
2023/09/29 01:07:42;;;;;;;1999.90;999.90;;;16.30;99.90;;;;;;5097831;28;20032;-66
2023/09/29 01:10:10;;;;;;;1999.90;999.90;;;16.30;99.90;;;;;;5103100;28;20112;-67
2023/09/29 01:12:37;;;;;;;1999.90;999.90;;;16.40;99.90;;;;;;5109655;28;20050;-67
2023/09/29 01:15:05;;;;;;;1999.90;999.90;;;16.40;99.90;;;;;;5100486;27;20023;-66
2023/09/29 01:17:31;;;;;;;1999.90;999.90;;;16.40;99.90;;;;;;5107753;28;20028;-67
2023/09/29 01:19:56;;;;;;;1999.90;999.90;;;16.40;99.90;;;;;;5099141;28;20032;-67
2023/09/29 01:22:22;;;;;;;1999.90;999.90;;;16.40;99.90;;;;;;5104344;28;20077;-67
2023/09/29 01:24:48;;;;;;;1999.90;999.90;;;16.50;99.90;;;;;;5113012;28;20322;-67
2023/09/29 01:27:14;;;;;;;1999.90;999.90;;;16.50;99.90;;;;;;5109822;28;20384;-67
2023/09/29 01:29:43;;;;;;;1999.90;999.90;;;16.50;99.90;;;;;;5103789;28;20023;-67
2023/09/29 01:32:14;;;;;;;1999.90;999.90;;;16.50;99.90;;;;;;5112435;28;20020;-66
2023/09/29 01:34:40;;;;;;;1999.90;999.90;;;16.50;99.90;;;;;;5111522;28;20032;-67
2023/09/29 01:37:07;;;;;;;1999.90;999.90;;;16.50;99.90;;;;;;5103627;28;20038;-67
2023/09/29 01:39:34;;;;;;;1999.90;999.90;;;16.50;99.90;;;;;;5103685;28;20050;-67
2023/09/29 01:42:00;;;;;;;1999.90;999.90;;;16.60;99.90;;;;;;5103638;28;20494;-67
2023/09/29 01:44:25;;;;;;;1999.90;999.90;;;16.60;99.90;;;;;;5101366;28;20111;-67
2023/09/29 01:46:51;;;;;;;1999.90;999.90;;;16.50;99.90;;;;;;5105828;28;20436;-67
2023/09/29 01:49:17;;;;;;;1999.90;999.90;;;16.60;99.90;;;;;;5108803;28;20315;-67
2023/09/29 01:51:44;;;;;;;1999.90;999.90;;;16.60;99.90;;;;;;5104943;28;20051;-67
2023/09/29 01:54:10;;;;;;;1999.90;999.90;;;16.60;99.90;;;;;;5113940;28;20028;-67
2023/09/29 01:56:35;;;;;;;1999.90;999.90;;;16.60;99.90;;;;;;5113778;28;20103;-67
2023/09/29 01:59:02;;;;;;;1999.90;999.90;;;16.60;99.90;;;;;;5097496;28;20058;-67
2023/09/29 02:01:28;;;;;;;;;;;16.60;99.90;;;;;;5112003;28;20024;-67
2023/09/29 02:03:55;;;;;;;1999.90;999.90;;;16.70;99.90;;;;;;5097660;28;20030;-67
2023/09/29 02:06:20;;;;;;;1999.90;999.90;;;16.70;99.90;;;;;;5103507;28;20081;-67
2023/09/29 02:08:46;;;;;;;1999.90;999.90;;;16.70;99.90;;;;;;5110170;28;20059;-77
2023/09/29 02:11:12;;;;;;;1999.90;999.90;;;16.70;99.90;;;;;;5104642;28;20038;-67
2023/09/29 02:13:38;;;;;;;1999.90;999.90;;;16.70;99.90;;;;;;5110689;28;20102;-67
2023/09/29 02:16:15;;;;;;;1999.90;999.90;;;16.70;99.90;;;;;;5107205;28;20023;-67
2023/09/29 02:18:41;;;;;;;1999.90;999.90;;;16.80;99.90;;;;;;5095975;28;20157;-66
2023/09/29 02:21:07;;;;;;;1999.90;999.90;;;16.70;99.90;;;;;;5078576;28;20027;-66
2023/09/29 02:23:33;;;;;;;1999.90;999.90;;;16.80;99.90;;;;;;5096028;28;20016;-67
2023/09/29 02:26:00;;;;;;;1999.90;999.90;;;16.70;99.90;;;;;;5100820;28;20024;-79
2023/09/29 02:28:30;;;;;;;1999.90;999.90;;;16.80;99.90;;;;;;5106502;28;20315;-66
2023/09/29 02:30:57;;;;;;;1999.90;999.90;;;16.80;99.90;;;;;;5099314;28;20428;-67
2023/09/29 02:33:24;;;;;;;;;;;16.80;99.90;;;;;;5103790;28;20085;-67
2023/09/29 02:35:50;;;;;;;;;;;16.80;99.90;;;;;;5103852;28;19954;-67
2023/09/29 02:38:16;;;;;;;1999.90;999.90;;;16.90;99.90;;;;;;5108657;28;20006;-67
2023/09/29 02:40:42;;;;;;;1999.90;999.90;;;16.90;99.90;;;;;;5100088;28;20182;-67
2023/09/29 02:43:09;;;;;;;1999.90;999.90;;;16.90;99.90;;;;;;5081434;28;20112;-67
2023/09/29 02:45:40;;;;;;;1999.90;999.90;;;16.90;99.90;;;;;;5103473;28;20024;-67
2023/09/29 02:48:06;;;;;;;1999.90;999.90;;;16.90;99.90;;;;;;5108799;28;20541;-67
2023/09/29 02:50:35;;;;;;;1999.90;999.90;;;16.90;99.90;;;;;;5103216;28;20039;-66
2023/09/29 02:53:05;;;;;;;1999.90;999.90;;;16.90;99.90;;;;;;5098064;28;20047;-66
2023/09/29 02:55:30;;;;;;;1999.90;999.90;;;17.00;99.90;;;;;;5105910;28;20035;-67
2023/09/29 02:57:56;;;;;;;1999.90;999.90;;;17.00;99.90;;;;;;5103924;28;20081;-82
2023/09/29 03:00:26;;;;;;;1999.90;999.90;;;17.00;99.90;;;;;;5104723;28;20073;-67
2023/09/29 03:02:52;;;;;;;1999.90;999.90;;;17.00;99.90;;;;;;5102601;28;20024;-67
2023/09/29 03:05:22;;;;;;;1999.90;999.90;;;17.00;99.90;;;;;;5080875;28;20427;-66
2023/09/29 03:07:47;;;;;;;1999.90;999.90;;;17.00;99.90;;;;;;5110168;28;20122;-67
2023/09/29 03:10:15;;;;;;;1999.90;999.90;;;17.00;99.90;;;;;;5112757;28;20151;-67
2023/09/29 03:12:42;;;;;;;1999.90;999.90;;;17.00;99.90;;;;;;5095596;28;20107;-67
2023/09/29 03:15:15;;;;;;;1999.90;999.90;;;17.00;99.90;;;;;;5108556;27;20081;-67
2023/09/29 03:17:45;;;;;;;1999.90;999.90;;;17.00;99.90;;;;;;5107740;28;20028;-67
2023/09/29 03:20:11;;;;;;;1999.90;999.90;;;17.00;99.90;;;;;;5101699;28;20149;-67
2023/09/29 03:22:41;;;;;;;1999.90;999.90;;;17.10;99.90;;;;;;5099534;28;20032;-67
2023/09/29 03:25:10;;;;;;;1999.90;999.90;;;17.10;99.90;;;;;;5098535;28;20040;-67
2023/09/29 03:27:37;;;;;;;1999.90;999.90;;;17.10;99.90;;;;;;5101262;28;20118;-67
2023/09/29 03:30:07;;;;;;;1999.90;999.90;;;17.10;99.90;;;;;;5097071;28;20863;-67
2023/09/29 03:32:33;;;;;;;1999.90;999.90;;;17.10;99.90;;;;;;5097859;28;20032;-67
2023/09/29 03:34:59;;;;;;;1999.90;999.90;;;17.10;99.90;;;;;;5100503;28;20037;-66
2023/09/29 03:37:27;;;;;;;1999.90;999.90;;;17.10;99.90;;;;;;5107687;28;20330;-67
2023/09/29 03:39:53;;;;;;;1999.90;999.90;;;17.20;99.90;;;;;;5101372;28;20365;-66
2023/09/29 03:42:22;;;;;;;1999.90;999.90;;;17.10;99.90;;;;;;5109002;28;20050;-67
2023/09/29 03:44:48;;;;;;;1999.90;999.90;;;17.20;99.90;;;;;;5095516;28;20425;-66
2023/09/29 03:47:14;;;;;;;1999.90;999.90;;;17.20;99.90;;;;;;5077245;28;20052;-66
2023/09/29 03:49:42;;;;;;;1999.90;999.90;;;17.20;99.90;;;;;;5094693;28;20287;-66
2023/09/29 03:52:08;;;;;;;1999.90;999.90;;;17.20;99.90;;;;;;5102630;28;20038;-67
2023/09/29 03:54:34;;;;;;;1999.90;999.90;;;17.30;99.90;;;;;;5103184;28;20016;-68
2023/09/29 03:57:03;;;;;;;1999.90;999.90;;;17.30;99.90;;;;;;5103300;28;20137;-67
2023/09/29 03:59:29;;;;;;;1999.90;999.90;;;17.30;99.90;;;;;;5099480;28;20267;-67
2023/09/29 04:01:55;;;;;;;1999.90;999.90;;;17.30;99.90;;;;;;5095056;28;20028;-77
2023/09/29 04:04:20;;;;;;;1999.90;999.90;;;17.30;99.90;;;;;;5102981;28;20028;-67
2023/09/29 04:06:46;;;;;;;1999.90;999.90;;;17.30;99.90;;;;;;5094914;28;20031;-67
2023/09/29 04:09:12;;;;;;;1999.90;999.90;;;17.30;99.90;;;;;;5088753;28;20023;-66
2023/09/29 04:11:40;;;;;;;1999.90;999.90;;;17.30;99.90;;;;;;5104705;28;20023;-67
2023/09/29 04:14:06;;;;;;;1999.90;999.90;;;17.20;99.90;;;;;;5097913;28;20036;-67
2023/09/29 04:16:31;;;;;;;1999.90;999.90;;;17.20;99.90;;;;;;5102310;28;20101;-66
2023/09/29 04:18:57;;;;;;;1999.90;999.90;;;17.20;99.90;;;;;;5103868;28;20096;-67
2023/09/29 04:21:23;;;;;;;1999.90;999.90;;;17.20;99.90;;;;;;5106755;28;20034;-67
2023/09/29 04:23:48;;;;;;;1999.90;999.90;;;17.20;99.90;;;;;;5106173;28;20066;-67
2023/09/29 04:26:21;;;;;;;1999.90;999.90;;;17.10;99.90;;;;;;5102536;28;20035;-67
2023/09/29 04:28:48;;;;;;;1999.90;999.90;;;17.10;99.90;;;;;;5082116;28;20012;-67
2023/09/29 04:31:14;;;;;;;1999.90;999.90;;;17.10;99.90;;;;;;5112736;28;20317;-67
2023/09/29 04:33:40;;;;;;;1999.90;999.90;;;17.10;99.90;;;;;;5107649;28;20028;-67
2023/09/29 04:36:06;;;;;;;1999.90;999.90;;;17.20;99.90;;;;;;5091359;28;20031;-67
2023/09/29 04:38:33;;;;;;;1999.90;999.90;;;17.20;99.90;;;;;;5105876;28;20431;-67
2023/09/29 04:40:59;;;;;;;1999.90;999.90;;;17.10;99.90;;;;;;5104827;28;20039;-67
2023/09/29 04:43:25;;;;;;;1999.90;999.90;;;17.20;99.90;;;;;;5117785;28;20430;-67
2023/09/29 04:45:50;;;;;;;1999.90;999.90;;;17.20;99.90;;;;;;5107488;28;20028;-68
2023/09/29 04:48:16;;;;;;;1999.90;999.90;;;17.20;99.90;;;;;;5107221;28;20028;-67
2023/09/29 04:50:42;;;;;;;1999.90;999.90;;;17.20;99.90;;;;;;5111454;28;20043;-67
2023/09/29 04:53:08;;;;;;;1999.90;999.90;;;17.20;99.90;;;;;;5117509;28;20031;-77
2023/09/29 04:55:34;;;;;;;1999.90;999.90;;;17.20;99.90;;;;;;5105132;28;20335;-67
2023/09/29 04:57:59;;;;;;;1999.90;999.90;;;17.20;99.90;;;;;;5116025;28;20371;-68
2023/09/29 05:00:26;;;;;;;1999.90;999.90;;;17.20;99.90;;;;;;5105675;28;21864;-68
2023/09/29 05:02:52;;;;;;;;;;;17.20;99.90;;;;;;5099091;28;20029;-67
2023/09/29 05:05:17;;;;;;;1999.90;999.90;;;17.20;99.90;;;;;;5100264;28;19908;-68
2023/09/29 05:07:44;;;;;;;1999.90;999.90;;;17.10;99.90;;;;;;5102722;28;20318;-67
2023/09/29 05:10:13;;;;;;;1999.90;999.90;;;17.20;99.90;;;;;;5104984;28;20024;-67
2023/09/29 05:12:40;;;;;;;1999.90;999.90;;;17.10;99.90;;;;;;5107116;28;20020;-67
2023/09/29 05:15:06;;;;;;;;;;;17.20;99.90;;;;;;5105055;28;20028;-67
2023/09/29 05:17:32;;;;;;;;;;;17.20;99.90;;;;;;5107175;28;19908;-68
2023/09/29 05:19:57;;;;;;;1999.90;999.90;;;17.20;99.90;;;;;;5104894;28;19908;-67
2023/09/29 05:22:23;;;;;;;1999.90;999.90;;;17.10;99.90;;;;;;5111157;28;20283;-67
2023/09/29 05:24:49;;;;;;;1999.90;999.90;;;17.10;99.90;;;;;;5106132;28;20020;-67
2023/09/29 05:27:15;;;;;;;1999.90;999.90;;;17.10;99.90;;;;;;5103285;28;20066;-78
2023/09/29 05:29:41;;;;;;;1999.90;999.90;;;17.10;99.90;;;;;;5100735;28;20028;-68
2023/09/29 05:32:06;;;;;;;1999.90;999.90;;;17.10;99.90;;;;;;5107972;28;20042;-67
2023/09/29 05:34:32;;;;;;;1999.90;999.90;;;17.10;99.90;;;;;;5111424;28;20036;-67
2023/09/29 05:36:58;;;;;;;1999.90;999.90;;;17.10;99.90;;;;;;5106983;28;20047;-67
2023/09/29 05:39:24;;;;;;;1999.90;999.90;;;17.10;99.90;;;;;;5110405;28;20026;-67
2023/09/29 05:41:49;;;;;;;1999.90;999.90;;;17.10;99.90;;;;;;5110517;28;20028;-67
2023/09/29 05:44:15;;;;;;;1999.90;999.90;;;17.10;99.90;;;;;;5106243;28;20031;-67
2023/09/29 05:46:41;;;;;;;1999.90;999.90;;;17.10;99.90;;;;;;5110883;28;20073;-68
2023/09/29 05:49:09;;;;;;;1999.90;999.90;;;17.10;99.90;;;;;;5111872;28;20368;-67
2023/09/29 05:51:36;;;;;;;1999.90;999.90;;;17.10;99.90;;;;;;5106266;28;20015;-67
2023/09/29 05:54:03;;;;;;;1999.90;999.90;;;17.10;99.90;;;;;;5108779;28;20103;-68
2023/09/29 05:56:31;;;;;;;1999.90;999.90;;;17.10;99.90;;;;;;5105527;28;20039;-67
2023/09/29 05:58:57;;;;;;;1999.90;999.90;;;17.10;99.90;;;;;;5104902;28;20031;-67
2023/09/29 06:01:25;;;;;;;1999.90;999.90;;;17.20;99.90;;;;;;5105726;28;20092;-78
2023/09/29 06:03:53;;;;;;;1999.90;999.90;;;17.10;99.90;;;;;;5104981;28;20048;-68
2023/09/29 06:06:19;;;;;;;1999.90;999.90;;;17.20;99.90;;;;;;5104156;28;20050;-67
2023/09/29 06:08:45;;;;;;;1999.90;999.90;;;17.20;99.90;;;;;;5109166;28;20020;-67
2023/09/29 06:11:12;;;;;;;1999.90;999.90;;;17.20;99.90;;;;;;5107618;28;20032;-68
2023/09/29 06:13:42;;;;;;;1999.90;999.90;;;17.20;99.90;;;;;;5104228;28;20080;-67
2023/09/29 06:16:08;;;;;;;1999.90;999.90;;;17.30;99.90;;;;;;5111390;28;20103;-67
2023/09/29 06:18:34;;;;;;;1999.90;999.90;;;17.30;99.90;;;;;;5109490;28;20034;-68
2023/09/29 06:21:00;;;;;;;1999.90;999.90;;;17.30;99.90;;;;;;5108989;28;20028;-68
2023/09/29 06:23:26;;;;;;;1999.90;999.90;;;17.30;99.90;;;;;;5106268;27;20313;-67
2023/09/29 06:25:59;;;;;;;1999.90;999.90;;;17.40;99.90;;;;;;5110338;27;20306;-67
2023/09/29 06:28:25;;;;;;;1999.90;999.90;;;17.40;99.90;;;;;;5085224;28;20032;-67
2023/09/29 06:30:53;;;;;;;1999.90;999.90;;;17.50;99.90;;;;;;5106451;27;20030;-68
2023/09/29 06:33:20;;;;;;;1999.90;999.90;;;17.50;99.90;;;;;;5097933;27;20027;-67
2023/09/29 06:35:46;;;;;;;1999.90;999.90;;;17.50;99.90;;;;;;5098983;27;20066;-67
2023/09/29 06:38:11;;;;;;;1999.90;999.90;;;17.60;99.90;;;;;;5097930;27;20493;-67
2023/09/29 06:40:37;;;;;;;1999.90;999.90;;;17.60;99.90;;;;;;5103744;27;20315;-67
2023/09/29 06:43:03;;;;;;;1999.90;999.90;;;17.60;99.90;;;;;;5103395;27;20327;-67
2023/09/29 06:45:31;;;;;;;1999.90;999.90;;;17.70;99.90;;;;;;5103083;28;20038;-67
2023/09/29 06:47:56;;;;;;;1999.90;999.90;;;17.70;99.90;;;;;;5099296;27;20046;-68
2023/09/29 06:50:22;;;;;;;1999.90;999.90;;;17.80;99.90;;;;;;5104150;28;20040;-67
2023/09/29 06:52:48;;;;;;;1999.90;999.90;;;17.90;99.90;;;;;;5099653;27;20091;-68
2023/09/29 06:55:14;;;;;;;1999.90;999.90;;;17.90;99.90;;;;;;5107977;27;20379;-67
2023/09/29 06:57:40;;;;;;;1999.90;999.90;;;17.90;99.90;;;;;;5110839;27;20035;-67
2023/09/29 07:00:08;;;;;;;1999.90;999.90;;;18.00;99.90;;;;;;5104266;27;20032;-76
2023/09/29 07:02:34;;;;;;;1999.90;999.90;;;18.00;99.90;;;;;;5105221;27;20434;-68
2023/09/29 07:05:00;;;;;;;1999.90;999.90;;;18.10;99.90;;;;;;5109314;27;20122;-68
2023/09/29 07:07:26;;;;;;;1999.90;999.90;;;18.10;99.90;;;;;;5103705;27;20323;-67
2023/09/29 07:09:51;;;;;;;1999.90;999.90;;;18.10;99.90;;;;;;5108243;27;20020;-68
2023/09/29 07:12:17;;;;;;;1999.90;999.90;;;18.20;99.90;;;;;;5103655;27;20077;-67
2023/09/29 07:14:43;;;;;;;1999.90;999.90;;;18.20;99.90;;;;;;5106339;27;20024;-68
2023/09/29 07:17:08;;;;;;;1999.90;999.90;;;18.30;99.90;;;;;;5108719;27;20019;-68
2023/09/29 07:19:34;;;;;;;1999.90;999.90;;;18.30;99.90;;;;;;5102375;27;20041;-67
2023/09/29 07:22:01;;;;;;;1999.90;999.90;;;18.40;99.90;;;;;;5112144;27;20724;-68
2023/09/29 07:24:27;;;;;;;1999.90;999.90;;;18.50;99.90;;;;;;5103229;27;20106;-67
2023/09/29 07:26:53;;;;;;;1999.90;999.90;;;18.50;99.90;;;;;;5103757;27;20318;-68
2023/09/29 07:29:18;;;;;;;1999.90;999.90;;;18.60;99.90;;;;;;5089278;27;20407;-68
2023/09/29 07:31:48;;;;;;;1999.90;999.90;;;18.60;99.90;;;;;;5097790;27;20100;-68
2023/09/29 07:34:17;;;;;;;1999.90;999.90;;;18.70;99.90;;;;;;5110509;27;20027;-67
2023/09/29 07:36:46;;;;;;;1999.90;999.90;;;18.70;99.90;;;;;;5110541;27;20426;-67
2023/09/29 07:39:15;;;;;;;1999.90;999.90;;;18.80;99.90;;;;;;5090421;27;20409;-67
2023/09/29 07:41:41;;;;;;;1999.90;999.90;;;18.80;99.90;;;;;;5102034;27;20060;-69
2023/09/29 07:44:10;;;;;;;1999.90;999.90;;;18.90;99.90;;;;;;5102342;27;20062;-68
2023/09/29 07:46:37;;;;;;;1999.90;999.90;;;19.00;99.90;;;;;;5089877;28;20115;-67
2023/09/29 07:49:03;;;;;;;1999.90;999.90;;;19.10;99.90;;;;;;5108486;27;20043;-75
2023/09/29 07:51:29;;;;;;;1999.90;999.90;;;19.10;99.90;;;;;;5102560;27;20425;-68
2023/09/29 07:53:56;;;;;;;1999.90;999.90;;;19.20;99.90;;;;;;5101661;27;20024;-68
2023/09/29 07:56:22;;;;;;;1999.90;999.90;;;19.30;99.90;;;;;;5108204;27;20077;-67
2023/09/29 07:58:47;;;;;;;1999.90;999.90;;;19.30;99.90;;;;;;5110883;27;20020;-75
2023/09/29 08:01:13;;;;;;;1999.90;999.90;;;19.40;99.90;;;;;;5110998;27;20414;-66
2023/09/29 08:03:40;;;;;;;1999.90;999.90;;;19.30;99.90;;;;;;5105575;27;20320;-80
2023/09/29 08:06:06;;;;;;;1999.90;999.90;;;19.30;99.90;;;;;;5086356;28;20028;-67
2023/09/29 08:08:31;;;;;;;1999.90;999.90;;;19.20;99.90;;;;;;5108143;27;20045;-67
2023/09/29 08:10:57;;;;;;;1999.90;999.90;;;19.10;99.90;;;;;;5114027;27;20020;-68
2023/09/29 08:13:23;;;;;;;1999.90;999.90;;;19.10;99.90;;;;;;5112989;27;20007;-67
2023/09/29 08:15:49;;;;;;;1999.90;999.90;;;19.10;99.90;;;;;;5102432;27;20039;-78
2023/09/29 08:18:17;;;;;;;1999.90;999.90;;;19.00;99.90;;;;;;5109314;27;20063;-67
2023/09/29 08:20:43;;;;;;;1999.90;999.90;;;19.00;99.90;;;;;;5110881;28;20016;-67
2023/09/29 08:23:09;;;;;;;1999.90;999.90;;;19.00;99.90;;;;;;5104168;28;20023;-67
2023/09/29 08:25:34;;;;;;;1999.90;999.90;;;19.00;99.90;;;;;;5104661;28;20024;-68
2023/09/29 08:28:02;;;;;;;1999.90;999.90;;;19.00;99.90;;;;;;5085339;28;20478;-67
2023/09/29 08:30:29;;;;;;;1999.90;999.90;;;19.10;99.90;;;;;;5085899;28;20020;-67
2023/09/29 08:32:54;;;;;;;1999.90;999.90;;;19.20;99.90;;;;;;5101628;28;20415;-68
2023/09/29 08:35:20;;;;;;;1999.90;999.90;;;19.20;99.90;;;;;;5109377;28;20040;-68
2023/09/29 08:37:47;;;;;;;1999.90;999.90;;;19.20;99.90;;;;;;5090935;28;20034;-67
2023/09/29 08:40:18;;;;;;;1999.90;999.90;;;19.20;99.90;;;;;;5100376;28;20067;-67
2023/09/29 08:42:49;;;;;;;1999.90;999.90;;;19.10;99.90;;;;;;5104425;28;20024;-67
2023/09/29 08:45:17;;;;;;;1999.90;999.90;;;19.20;99.90;;;;;;5098379;28;20039;-68
2023/09/29 08:47:50;;;;;;;1999.90;999.90;;;19.10;99.90;;;;;;5101888;28;20070;-68
2023/09/29 08:50:16;;;;;;;1999.90;999.90;;;19.20;99.90;;;;;;5098288;28;20478;-68
2023/09/29 08:52:44;;;;;;;1999.90;999.90;;;19.20;99.90;;;;;;5100382;28;20031;-67
2023/09/29 08:55:14;;;;;;;1999.90;999.90;;;19.20;99.90;;;;;;5101951;28;20037;-67
2023/09/29 08:57:44;;;;;;;1999.90;999.90;;;19.30;99.90;;;;;;5097635;28;20413;-68
2023/09/29 09:00:13;;;;;;;1999.90;999.90;;;19.40;99.90;;;;;;5107164;28;20023;-67
2023/09/29 09:02:43;;;;;;;1999.90;999.90;;;19.40;99.90;;;;;;5106659;28;20024;-68
2023/09/29 09:05:12;;;;;;;1999.90;999.90;;;19.40;99.90;;;;;;5108230;28;20020;-68
2023/09/29 09:07:43;;;;;;;1999.90;999.90;;;19.60;99.90;;;;;;5104089;28;20110;-68
2023/09/29 09:10:11;;;;;;;1999.90;999.90;;;19.70;99.90;;;;;;5100033;28;20134;-67
2023/09/29 09:12:40;;;;;;;1999.90;999.90;;;19.80;99.90;;;;;;5104017;28;20028;-67
2023/09/29 09:15:08;;;;;;;1999.90;999.90;;;19.90;99.90;;;;;;5111929;27;20417;-68
2023/09/29 09:17:34;;;;;;;1999.90;999.90;;;20.10;99.90;;;;;;5107636;27;20034;-74
2023/09/29 09:20:01;;;;;;;;;;;20.20;99.90;;;;;;5115061;27;20092;-82
2023/09/29 09:22:31;;;;;;;;;;;20.20;99.90;;;;;;5107545;28;19995;-67
2023/09/29 09:24:58;;;;;;;1999.90;999.90;;;20.20;99.90;;;;;;5112517;27;19908;-68
2023/09/29 09:27:24;;;;;;;1999.90;999.90;;;20.10;99.90;;;;;;5108070;27;20339;-68
2023/09/29 09:29:50;;;;;;;1999.90;999.90;;;20.10;99.90;;;;;;5103776;27;20125;-68
2023/09/29 09:32:26;;;;;;;1999.90;999.90;;;20.20;99.90;;;;;;5103694;28;20024;-68
2023/09/29 09:34:51;;;;;;;1999.90;999.90;;;20.20;99.90;;;;;;5099059;28;20111;-74
2023/09/29 09:37:27;;;;;;;1999.90;999.90;;;20.20;99.90;;;;;;5097361;28;20112;-79
2023/09/29 09:39:55;;;;;;;1999.90;999.90;;;20.20;99.90;;;;;;5100501;28;20024;-67
2023/09/29 09:42:25;;;;;;;1999.90;999.90;;;20.20;99.90;;;;;;5097987;28;20040;-69
2023/09/29 09:44:53;;;;;;;1999.90;999.90;;;20.30;99.90;;;;;;5106293;28;20043;-67
2023/09/29 09:47:20;;;;;;;1999.90;999.90;;;20.30;99.90;;;;;;5100750;28;20426;-67
2023/09/29 09:49:48;;;;;;;1999.90;999.90;;;20.40;99.90;;;;;;5096882;28;20044;-77
2023/09/29 09:52:25;;;;;;;1999.90;999.90;;;20.40;99.90;;;;;;5101650;28;20028;-68
2023/09/29 09:54:58;;;;;;;1999.90;999.90;;;20.40;99.90;;;;;;5084528;28;20028;-68
2023/09/29 09:57:38;;;;;;;1999.90;999.90;;;20.50;99.90;;;;;;5112720;28;20322;-76
2023/09/29 10:00:08;;;;;;;1999.90;999.90;;;20.50;99.90;;;;;;5112100;28;20032;-67
2023/09/29 10:02:44;;;;;;;1999.90;999.90;;;20.40;99.90;;;;;;5108780;28;20028;-68
2023/09/29 10:05:30;;;;;;;1999.90;999.90;;;20.40;99.90;;;;;;5102950;28;20027;-67
2023/09/29 10:08:01;;;;;;;1999.90;999.90;;;20.40;99.90;;;;;;5097633;28;20430;-67
2023/09/29 10:10:31;;;;;;;1999.90;999.90;;;20.50;99.90;;;;;;5105054;28;20027;-67
2023/09/29 10:13:01;;;;;;;1999.90;999.90;;;20.50;99.90;;;;;;5104301;28;20099;-67
2023/09/29 10:15:30;;;;;;;1999.90;999.90;;;20.40;99.90;;;;;;5109151;28;20411;-67
2023/09/29 10:18:20;;;;;;;1999.90;999.90;;;20.40;99.90;;;;;;5097881;28;20054;-67
2023/09/29 10:20:55;;;;;;;1999.90;999.90;;;20.30;99.90;;;;;;5083136;28;20503;-67
2023/09/29 10:23:25;;;;;;;1999.90;999.90;;;20.30;99.90;;;;;;5117054;28;20035;-67
2023/09/29 10:26:02;;;;;;;1999.90;999.90;;;20.20;99.90;;;;;;5097736;28;20431;-82
2023/09/29 10:28:35;;;;;;;1999.90;999.90;;;20.20;99.90;;;;;;5100837;28;20107;-67
2023/09/29 10:31:08;;;;;;;1999.90;999.90;;;20.10;99.90;;;;;;5101114;28;20115;-67
2023/09/29 10:33:54;;;;;;;1999.90;999.90;;;20.10;99.90;;;;;;5107542;28;20020;-66
2023/09/29 10:36:24;;;;;;;1999.90;999.90;;;20.10;99.90;;;;;;5096737;28;20020;-66
2023/09/29 10:38:51;;;;;;;1999.90;999.90;;;20.10;99.90;;;;;;5095512;28;20082;-67
2023/09/29 10:41:23;;;;;;;1999.90;999.90;;;20.10;99.90;;;;;;5102761;28;20024;-66
2023/09/29 10:43:50;;;;;;;1999.90;999.90;;;20.10;99.90;;;;;;5095478;28;20039;-67
2023/09/29 10:46:17;;;;;;;1999.90;999.90;;;20.10;99.90;;;;;;5094650;28;20024;-67
2023/09/29 10:48:47;;;;;;;1999.90;999.90;;;20.10;99.90;;;;;;5097837;28;20024;-67
2023/09/29 10:51:27;;;;;;;1999.90;999.90;;;20.10;99.90;;;;;;5100876;28;20055;-66
2023/09/29 10:53:53;;;;;;;1999.90;999.90;;;20.20;99.90;;;;;;5102301;28;20055;-66
2023/09/29 10:56:23;;;;;;;1999.90;999.90;;;20.20;99.90;;;;;;5107158;28;20047;-66
2023/09/29 10:58:52;;;;;;;1999.90;999.90;;;20.20;99.90;;;;;;5104030;28;20028;-81
2023/09/29 11:01:21;;;;;;;1999.90;999.90;;;20.10;99.90;;;;;;5089675;28;20427;-66
2023/09/29 11:03:48;;;;;;;1999.90;999.90;;;20.10;99.90;;;;;;5108960;28;20030;-66
2023/09/29 11:06:18;;;;;;;1999.90;999.90;;;20.00;99.90;;;;;;5107424;27;20103;-66
2023/09/29 11:08:55;;;;;;;1999.90;999.90;;;19.90;99.90;;;;;;5105144;28;20016;-67
2023/09/29 11:11:21;;;;;;;1999.90;999.90;;;19.90;99.90;;;;;;5103775;28;20024;-67
2023/09/29 11:13:57;;;;;;;1999.90;999.90;;;19.90;99.90;;;;;;5106695;28;20422;-66
2023/09/29 11:16:26;;;;;;;1999.90;999.90;;;19.60;99.90;;;;;;5103583;28;20406;-66
2023/09/29 11:18:56;;;;;;;1999.90;999.90;;;19.40;99.90;;;;;;5088533;28;20027;-66
2023/09/29 11:21:35;;;;;;;1999.90;999.90;;;19.10;99.90;;;;;;5105552;28;20020;-66
2023/09/29 11:24:05;;;;;;;1999.90;999.90;;;18.90;99.90;;;;;;5100968;28;20063;-66
2023/09/29 11:26:32;;;;;;;1999.90;999.90;;;18.80;99.90;;;;;;5090632;28;20035;-66
2023/09/29 11:28:58;;;;;;;1999.90;999.90;;;18.60;99.90;;;;;;5099374;28;20015;-76
2023/09/29 11:31:24;;;;;;;1999.90;999.90;;;18.50;99.90;;;;;;5104746;28;20543;-67
2023/09/29 11:33:51;;;;;;;1999.90;999.90;;;18.50;99.90;;;;;;5106779;28;20445;-67
2023/09/29 11:36:18;;;;;;;1999.90;999.90;;;18.40;99.90;;;;;;5103391;28;20034;-66
2023/09/29 11:38:44;;;;;;;1999.90;999.90;;;18.20;99.90;;;;;;5098273;28;20030;-67
2023/09/29 11:41:11;;;;;;;;;;;18.20;99.90;;;;;;5106624;28;20060;-67
2023/09/29 11:43:39;;;;;;;1999.90;999.90;;;18.20;99.90;;;;;;5108732;28;19990;-67
2023/09/29 11:46:05;;;;;;;1999.90;999.90;;;18.20;99.90;;;;;;5097789;28;20051;-67
2023/09/29 11:48:31;;;;;;;1999.90;999.90;;;18.20;99.90;;;;;;5094664;28;20063;-67
2023/09/29 11:50:56;;;;;;;1999.90;999.90;;;18.30;99.90;;;;;;5096107;28;20046;-67
2023/09/29 11:53:22;;;;;;;1999.90;999.90;;;18.30;99.90;;;;;;5106041;28;20102;-67
2023/09/29 11:55:48;;;;;;;1999.90;999.90;;;18.30;99.90;;;;;;5095395;28;20034;-67
2023/09/29 11:58:14;;;;;;;1999.90;999.90;;;18.30;99.90;;;;;;5078185;28;20131;-67
2023/09/29 12:00:41;;;;;;;1999.90;999.90;;;18.40;99.90;;;;;;5098810;28;20070;-67
2023/09/29 12:03:08;;;;;;;1999.90;999.90;;;18.50;99.90;;;;;;5097787;28;20346;-76
2023/09/29 12:05:37;;;;;;;1999.90;999.90;;;18.60;99.90;;;;;;5094867;28;20031;-66
2023/09/29 12:08:04;;;;;;;1999.90;999.90;;;18.70;99.90;;;;;;5106917;28;20066;-67